WetterOnline ( https://www.wetteronline.de )

Wetter aktuell Algermissen

Aktuelles Wetter: Alfeld (148m)

6-stündlich | Neueste Meldungen
Ortszeit Temperatur Wetter
Mi, 03.06. 2:00 12.6° C bedeckt
Di, 02.06. 20:00 24.2° C leicht bewölkt
Di, 02.06. 14:00 23.4° C leicht bewölkt
Di, 02.06. 8:00 14.6° C fast wolkenlos
Di, 02.06. 2:00 12.0° C wolkenlos
Mo, 01.06. 20:00 22.6° C wolkenlos
Mo, 01.06. 14:00 20.8° C wolkenlos
Mo, 01.06. 8:00 10.7° C wolkenlos
Ortszeit Temperatur Wetter
Mi, 03.06. 3:00 11.4° C bedeckt
Mi, 03.06. 2:50 11.4° C bedeckt
Mi, 03.06. 2:40 11.9° C bedeckt
Mi, 03.06. 2:30 12.2° C bedeckt
Mi, 03.06. 2:20 12.2° C bedeckt
Mi, 03.06. 2:10 12.6° C bedeckt
Mi, 03.06. 2:00 12.6° C bedeckt
Mi, 03.06. 1:30 13.7° C bedeckt
Mi, 03.06. 1:00 14.0° C bedeckt
Ortszeit Relative Feuchte Sichtweite
Mi, 03.06. 2:00 84% >70 km
Di, 02.06. 20:00 39% 60 km
Di, 02.06. 14:00 38% 60 km
Di, 02.06. 8:00 60% 55 km
Di, 02.06. 2:00 71% >70 km
Mo, 01.06. 20:00 36% 65 km
Mo, 01.06. 14:00 41% 50 km
Mo, 01.06. 8:00 66% 55 km
Ortszeit Relative Feuchte Sichtweite
Mi, 03.06. 3:00 88% 60 km
Mi, 03.06. 2:50 88% -
Mi, 03.06. 2:40 86% -
Mi, 03.06. 2:30 86% 65 km
Mi, 03.06. 2:20 86% -
Mi, 03.06. 2:10 83% -
Mi, 03.06. 2:00 84% >70 km
Mi, 03.06. 1:30 79% >70 km
Mi, 03.06. 1:00 78% 65 km
Ortszeit Niederschlagsmenge Niederschlagsart
Mi, 03.06. 2:00 0.0 l/m2 in 6 Std. -
Di, 02.06. 20:00 0.0 l/m2 in 12 Std. -
Di, 02.06. 14:00 0.0 l/m2 in 6 Std. -
Di, 02.06. 8:00 0.0 l/m2 in 12 Std. -
Di, 02.06. 2:00 0.0 l/m2 in 6 Std. -
Mo, 01.06. 20:00 0.0 l/m2 in 12 Std. -
Mo, 01.06. 14:00 0.0 l/m2 in 6 Std. -
Mo, 01.06. 8:00 0.0 l/m2 in 12 Std. -
Ortszeit Niederschlagsmenge Niederschlagsart
Mi, 03.06. 3:00 0.0 l/m2 in 1 Std. -
Mi, 03.06. 2:50 keine Meldung -
Mi, 03.06. 2:40 keine Meldung -
Mi, 03.06. 2:30 0.0 l/m2 in 1 Std. -
Mi, 03.06. 2:20 keine Meldung -
Mi, 03.06. 2:10 keine Meldung -
Mi, 03.06. 2:00 0.0 l/m2 in 1 Std. -
Mi, 03.06. 1:30 0.0 l/m2 in 1 Std. -
Mi, 03.06. 1:00 0.0 l/m2 in 1 Std. -
Ortszeit Stärke Spitze Richtung
km/h Bft. km/h Grad Sektor
Mi, 03.06. 2:00 6 1 7 140° SO
Di, 02.06. 20:00 4 1 18 40° NO
Di, 02.06. 14:00 9 2 20 40° NO
Di, 02.06. 8:00 2 1 7 40° NO
Di, 02.06. 2:00 4 1 14 40° NO
Mo, 01.06. 20:00 9 2 35 40° NO
Mo, 01.06. 14:00 11 2 29 40° NO
Mo, 01.06. 8:00 4 1 14 340° N
Ortszeit Stärke Spitze Richtung
km/h Bft. km/h Grad Sektor
Mi, 03.06. 3:00 4 1 7 140° SO
Mi, 03.06. 2:50 4 1 - 140° SO
Mi, 03.06. 2:40 4 1 - 160° S
Mi, 03.06. 2:30 4 1 7 140° SO
Mi, 03.06. 2:20 4 1 - 140° SO
Mi, 03.06. 2:10 4 1 - 150° SO
Mi, 03.06. 2:00 6 1 7 140° SO
Mi, 03.06. 1:30 4 1 7 180° S
Mi, 03.06. 1:00 4 1 4 130° SO
Ortszeit Untergrenze Bedeckung Gattung
total tief tief mittel hoch
Mi, 03.06. 2:00 6000 m 8/8 8/8 - - -
Di, 02.06. 20:00 7500 m 8/8 0/8 - - -
Di, 02.06. 14:00 8400 m 3/8 0/8 - - -
Di, 02.06. 8:00 10500 m 1/8 0/8 - - -
Di, 02.06. 2:00 - 0/8 0/8 - - -
Mo, 01.06. 20:00 - 0/8 0/8 - - -
Mo, 01.06. 14:00 - 0/8 0/8 - - -
Mo, 01.06. 8:00 - 0/8 0/8 - - -
Ortszeit Bedeckungsgrad in Achtel und Wolkenuntergrenze
Mi, 03.06. 3:00 8(6300m) 8(9000m) 8(10500m)
Mi, 03.06. 2:50 8(6300m) 8(9000m) 8(10500m)
Mi, 03.06. 2:40 8(6300m) 8(9000m)
Mi, 03.06. 2:30 8(6300m) 8(8100m) 8(9000m)
Mi, 03.06. 2:20 8(6300m) 8(8100m) 8(9000m)
Mi, 03.06. 2:10 8(6300m) 8(8100m) 8(9000m)
Mi, 03.06. 2:00 8(6000m) 8(9000m) 8(10500m)
Mi, 03.06. 1:30 8(5700m) 8(9000m)
Mi, 03.06. 1:00 8(6000m) 8(9000m)
Ortszeit Luftdruck NN (hPa) Tendenz (hPa in 3 Std.)
Mi, 03.06. 2:00 1011 - 1,8
Di, 02.06. 20:00 1013 - 2,4
Di, 02.06. 14:00 1018 - 2,3
Di, 02.06. 8:00 1021 0,0
Di, 02.06. 2:00 1022 + 0,1
Mo, 01.06. 20:00 1021 - 0,8
Mo, 01.06. 14:00 1023 - 1,3
Mo, 01.06. 8:00 1025 + 0,7
Ortszeit Luftdruck NN (hPa) Tendenz (hPa in 3 Std.)
Mi, 03.06. 3:00 1010 - 1,9
Mi, 03.06. 2:50 1010 keine Meldung
Mi, 03.06. 2:40 1010 keine Meldung
Mi, 03.06. 2:30 1010 - 1,9
Mi, 03.06. 2:20 1010 keine Meldung
Mi, 03.06. 2:10 1010 keine Meldung
Mi, 03.06. 2:00 1011 - 1,8
Mi, 03.06. 1:30 1011 - 1,6
Mi, 03.06. 1:00 1011 - 1,3
Ortszeit Schneehöhe (cm)
Mi, 03.06. 2:00 -
Di, 02.06. 20:00 -
Di, 02.06. 14:00 -
Di, 02.06. 8:00 -
Di, 02.06. 2:00 -
Mo, 01.06. 20:00 -
Mo, 01.06. 14:00 -
Mo, 01.06. 8:00 -
Ortszeit Schneehöhe (cm)
Mi, 03.06. 3:00 -
Mi, 03.06. 2:50 -
Mi, 03.06. 2:40 -
Mi, 03.06. 2:30 -
Mi, 03.06. 2:20 -
Mi, 03.06. 2:10 -
Mi, 03.06. 2:00 -
Mi, 03.06. 1:30 -
Mi, 03.06. 1:00 -
Link zu dieser Seite / Seite empfehlen

Das Wetter in ...